Flight Track Log - Related Links

Times and Time Zones

All times are in EDT time to prevent confusion due to time zone crossing. See the EJA947 flight status page for this flight to view local times or setup timezone preferences in your user account.

Time Position Orientation Groundspeed Altitude Reporting Facility
EDT Latitude Longitude Course Direction KTS MPH feet Rate Location/Type
Tue 02:42:49 PM 39.1167 -76.6000 90° East 241 277 3,700  Level Potomac TRACON
Tue 02:43:49 PM 39.0667 -76.5333 134° Southeast 286 329 6,800 2,881 Climbing Potomac TRACON
Tue 02:45:46 PM 39.0942 -76.3644 78° East 311 358 12,200 2,203 Climbing Washington Center
Tue 02:46:46 PM 39.1428 -76.2525 61° Northeast 330 380 13,300 1,550 Climbing Washington Center
Tue 02:47:46 PM 39.1664 -76.1136 78° East 354 407 15,300 1,950 Climbing Washington Center
Tue 02:48:00 PM 39.1500 -76.4315 90° East  Level FlightAware Approximate
Tue 02:48:46 PM 39.1836 -75.9719 81° East 380 437 17,200  Level Washington Center
Tue 02:49:46 PM 39.2278 -75.8356 67° East 397 457 18,500 1,650 Climbing Washington Center
Tue 02:50:46 PM 39.3114 -75.7311 44° Northeast 397 457 20,500 1,900 Climbing Washington Center
Tue 02:51:46 PM 39.3947 -75.6211 46° Northeast 408 470 22,300 1,811 Climbing Washington Center
Tue 02:53:35 PM 39.5531 -75.4156 45° Northeast 441 507 25,600 1,821 Climbing New York Center
Tue 02:54:34 PM 39.6431 -75.3000 45° Northeast 446 513 27,400 1,664 Climbing New York Center
Tue 02:55:34 PM 39.7333 -75.1736 47° Northeast 453 521 28,900 1,587 Climbing New York Center
Tue 02:56:35 PM 39.8214 -75.0414 49° Northeast 473 544 30,600 1,820 Climbing New York Center
Tue 02:57:36 PM 39.9097 -74.9086 49° Northeast 479 551 32,600 1,190 Climbing New York Center
Tue 02:58:36 PM 40.0042 -74.7681 49° Northeast 500 575 33,000 203 Climbing New York Center
Tue 02:59:34 PM 40.1072 -74.6139 49° Northeast 518 596 33,000  Level New York Center
Tue 03:00:35 PM 40.2017 -74.4669 50° Northeast 512 589 33,000  Level New York Center
Tue 03:01:35 PM 40.2936 -74.3247 50° Northeast 512 589 33,000  Level New York Center
Tue 03:02:36 PM 40.3831 -74.1850 50° Northeast 512 589 33,000 -261 Level New York Center
Tue 03:04:39 PM 40.5675 -73.9044 49° Northeast 505 581 32,200 -1,148 Descending Boston Center
Tue 03:05:39 PM 40.6589 -73.7586 50° Northeast 505 581 29,500 -3,051 Descending Boston Center
Tue 03:06:37 PM 40.7650 -73.5856 51° Northeast 526 605 26,200 -2,797 Descending Boston Center
Tue 03:07:37 PM 40.8558 -73.4417 50° Northeast 531 611 24,000 -1,190 Descending Boston Center
Tue 03:08:38 PM 40.9422 -73.3219 46° Northeast 507 583 23,800 -492 Descending Boston Center
Tue 03:09:39 PM 41.0350 -73.1831 48° Northeast 501 577 23,000 -397 Descending Boston Center
Tue 03:10:39 PM 41.1253 -73.0464 49° Northeast 496 571 23,000  Level Boston Center
Tue 03:11:40 PM 41.2136 -72.9064 50° Northeast 490 564 23,000  Level Boston Center
Tue 03:12:37 PM 41.2789 -72.7522 61° Northeast 478 550 23,000  Level Boston Center
Tue 03:13:38 PM 41.3375 -72.6006 63° Northeast 466 536 23,000  Level Boston Center
Tue 03:14:37 PM 41.3917 -72.4511 64° Northeast 452 520 23,000  Level Boston Center
Tue 03:15:38 PM 41.4458 -72.2989 65° Northeast 447 514 23,000  Level Boston Center
Tue 03:16:38 PM 41.5017 -72.1519 63° Northeast 441 507 23,000  Level Boston Center
Tue 03:17:39 PM 41.5556 -71.9964 65° Northeast 448 516 23,000 -344 Level Boston Center
Tue 03:18:40 PM 41.6028 -71.8406 68° East 453 521 22,300 -1,525 Descending Boston Center
Tue 03:19:37 PM 41.6478 -71.6900 68° East 453 521 20,000 -2,288 Descending Boston Center
Tue 03:20:38 PM 41.6925 -71.5394 68° East 447 514 17,800 -2,607 Descending Boston Center
Tue 03:21:39 PM 41.7472 -71.3856 64° Northeast 416 479 14,700 -2,924 Descending Boston Center
Tue 03:22:37 PM 41.8025 -71.2761 56° Northeast 394 453 12,000 -2,319 Descending Boston Center
Tue 03:23:38 PM 41.8961 -71.2547 10° North 313 360 10,100 -1,623 Descending Boston Center
Tue 03:24:39 PM 41.9711 -71.2506 North 295 339 8,700 -1,488 Descending Boston Center
Tue 03:25:39 PM 42.0606 -71.2461 North 289 333 7,100 -1,450 Descending Boston Center
Tue 03:26:39 PM 42.1356 -71.2392 North 294 338 5,800 -1,068 Descending Boston Center
Tue 03:27:37 PM 42.2206 -71.1925 22° Northeast 294 338 5,000 -407 Descending Boston Center
Tue 03:28:37 PM 42.2911 -71.1547 22° Northeast 300 345 5,000  Level Boston Center
Tue 03:29:38 PM 42.3800 -71.1078 21° North 308 354 5,000 -446 Level Boston Center
Tue 03:30:38 PM 42.4442 -71.0756 20° North 296 341 4,100 -1,000 Descending Boston Center
Tue 03:31:38 PM 42.5189 -71.0431 18° North 260 299 3,000 -500 Descending Boston Center
Tue 03:32:38 PM 42.5475 -70.9944 51° Northeast 220 253 3,100  Climbing Boston Center
Tue 03:33:42 PM 42.5167 -70.9167 118° Southeast 186 214 3,000 -290 Descending KA90
Tue 03:34:42 PM 42.4833 -70.9333 200° South 146 168 2,500 -650 Descending KA90
Tue 03:35:42 PM 42.4500 -70.9667 216° Southwest 147 169 1,700 -700 Descending KA90
Tue 03:36:42 PM 42.4167 -70.9833 200° South 108 124 1,100 -550 Descending KA90
Tue 03:37:42 PM 42.4000 -70.9833 180° South 108 124 600 -500 Descending KA90
Tue 03:39:00 PM 42.3630 -71.0064 200° South  Level Estimated

Login

Don't have an account? Register now (free) for customized features, flight alerts, and more!